Time;durP1;ratioP1;P1;durP2;ratioP2;P2;SDS_P1;SDS_P2;PMS_P1;PMS_P2;Temp;Humidity;BMP_temperature;BMP_pressure;BME280_temperature;BME280_humidity;BME280_pressure;Samples;Min_cycle;Max_cycle;Signal;HPM_P1;HPM_P2
2023/06/15 00:01:06;;;;;;;7.10;3.08;;;16.40;99.90;;;;;;5036806;28;20040;-63
2023/06/15 00:03:32;;;;;;;5.07;3.13;;;16.40;99.90;;;;;;5043495;28;20407;-66
2023/06/15 00:05:57;;;;;;;3.58;2.72;;;16.30;99.90;;;;;;5039891;28;20026;-66
2023/06/15 00:08:23;;;;;;;3.53;2.55;;;16.20;99.90;;;;;;5036617;28;20021;-66
2023/06/15 00:10:48;;;;;;;4.30;2.42;;;16.10;99.90;;;;;;5042240;28;20030;-66
2023/06/15 00:13:15;;;;;;;3.10;2.53;;;16.00;99.90;;;;;;5047555;28;20025;-66
2023/06/15 00:15:41;;;;;;;4.85;3.25;;;15.90;99.90;;;;;;5035122;28;20037;-66
2023/06/15 00:18:07;;;;;;;7.88;2.60;;;15.90;99.90;;;;;;5033005;28;20033;-66
2023/06/15 00:20:34;;;;;;;5.13;3.45;;;15.80;99.90;;;;;;5033351;28;20083;-66
2023/06/15 00:23:00;;;;;;;4.90;3.55;;;15.70;99.90;;;;;;5040961;28;20037;-65
2023/06/15 00:25:25;;;;;;;5.38;2.60;;;15.70;99.90;;;;;;5037664;28;20033;-66
2023/06/15 00:27:51;;;;;;;3.92;2.85;;;15.70;99.90;;;;;;5045039;28;20046;-65
2023/06/15 00:30:18;;;;;;;4.38;3.15;;;15.60;99.90;;;;;;5041900;28;20056;-65
2023/06/15 00:32:44;;;;;;;4.68;3.17;;;15.50;99.90;;;;;;5046059;28;20029;-66
2023/06/15 00:35:10;;;;;;;5.90;3.20;;;15.50;99.90;;;;;;5039327;28;20028;-66
2023/06/15 00:37:35;;;;;;;5.72;3.28;;;15.50;99.90;;;;;;5042045;28;20021;-65
2023/06/15 00:40:01;;;;;;;5.13;3.05;;;15.40;99.90;;;;;;5040244;28;20057;-66
2023/06/15 00:42:29;;;;;;;4.65;2.80;;;15.30;99.90;;;;;;5044108;28;20032;-66
2023/06/15 00:44:55;;;;;;;4.60;3.30;;;15.30;99.90;;;;;;5040904;28;20128;-65
2023/06/15 00:47:21;;;;;;;4.95;3.05;;;15.30;99.90;;;;;;5038768;28;20150;-65
2023/06/15 00:49:48;;;;;;;9.75;3.28;;;15.30;99.90;;;;;;5035917;28;20361;-65
2023/06/15 00:52:16;;;;;;;5.20;3.20;;;15.30;99.90;;;;;;5043167;28;20112;-66
2023/06/15 00:54:43;;;;;;;3.53;2.95;;;15.40;99.90;;;;;;5040036;28;20021;-65
2023/06/15 00:57:10;;;;;;;4.30;3.10;;;15.40;99.90;;;;;;5041332;28;20479;-66
2023/06/15 00:59:37;;;;;;;6.13;3.55;;;15.30;99.90;;;;;;5040201;28;20032;-66
2023/06/15 01:02:03;;;;;;;5.68;3.03;;;15.30;99.90;;;;;;5043879;28;20528;-66
2023/06/15 01:04:29;;;;;;;4.38;3.30;;;15.30;99.90;;;;;;5036591;28;20475;-65
2023/06/15 01:07:02;;;;;;;3.58;2.53;;;15.20;99.90;;;;;;5043914;28;20036;-66
2023/06/15 01:09:31;;;;;;;4.53;2.90;;;15.10;99.90;;;;;;5039223;28;20032;-66
2023/06/15 01:11:59;;;;;;;4.15;3.00;;;15.00;99.90;;;;;;5045820;28;20025;-65
2023/06/15 01:14:28;;;;;;;4.57;3.20;;;15.00;99.90;;;;;;5044742;28;20391;-66
2023/06/15 01:16:59;;;;;;;5.43;3.13;;;14.90;99.90;;;;;;5043422;28;20427;-66
2023/06/15 01:19:54;;;;;;;6.40;2.97;;;14.90;99.90;;;;;;5041776;28;20033;-65
2023/06/15 01:22:49;;;;;;;5.55;3.05;;;14.80;99.90;;;;;;5037316;28;20420;-67
2023/06/15 01:25:40;;;;;;;4.65;2.88;;;14.80;99.90;;;;;;5037796;28;20048;-65
2023/06/15 01:28:09;;;;;;;4.47;3.30;;;14.70;99.90;;;;;;5037333;28;20034;-65
2023/06/15 01:30:40;;;;;;;4.00;3.42;;;14.70;99.90;;;;;;5038377;28;20028;-66
2023/06/15 01:33:06;;;;;;;5.05;3.30;;;14.70;99.90;;;;;;5045062;28;20021;-66
2023/06/15 01:35:31;;;;;;;6.47;3.35;;;14.60;99.90;;;;;;5045982;28;20037;-66
2023/06/15 01:37:57;;;;;;;4.28;3.38;;;14.60;99.90;;;;;;5050259;28;20083;-66
2023/06/15 01:40:22;;;;;;;4.07;3.00;;;14.50;99.90;;;;;;5052586;28;20064;-65
2023/06/15 01:42:50;;;;;;;5.38;2.95;;;14.40;99.90;;;;;;5037615;28;20060;-65
2023/06/15 01:45:17;;;;;;;4.45;3.10;;;14.40;99.90;;;;;;5038021;28;20048;-66
2023/06/15 01:47:43;;;;;;;5.57;3.50;;;14.50;99.90;;;;;;5049026;28;20037;-66
2023/06/15 01:50:10;;;;;;;4.38;3.38;;;14.40;99.90;;;;;;5043994;28;20476;-65
2023/06/15 01:52:36;;;;;;;7.88;3.60;;;14.40;99.90;;;;;;5043089;28;20029;-65
2023/06/15 01:55:02;;;;;;;4.53;3.50;;;14.40;99.90;;;;;;5043863;28;20491;-67
2023/06/15 01:57:27;;;;;;;5.72;3.15;;;14.40;99.90;;;;;;5044208;28;20037;-66
2023/06/15 01:59:54;;;;;;;5.05;3.42;;;14.30;99.90;;;;;;5041136;28;20021;-65
2023/06/15 02:02:20;;;;;;;7.93;4.20;;;14.30;99.90;;;;;;5040908;28;20731;-65
2023/06/15 02:04:46;;;;;;;6.43;3.85;;;14.30;99.90;;;;;;5042316;28;20029;-66
2023/06/15 02:07:11;;;;;;;7.68;3.45;;;14.30;99.90;;;;;;5043864;28;20037;-65
2023/06/15 02:09:37;;;;;;;5.55;3.42;;;14.30;99.90;;;;;;5045731;28;20027;-65
2023/06/15 02:12:03;;;;;;;3.70;2.83;;;14.20;99.90;;;;;;5058502;28;20057;-66
2023/06/15 02:14:28;;;;;;;5.63;3.85;;;14.10;99.90;;;;;;5041915;28;20024;-66
2023/06/15 02:16:56;;;;;;;6.40;3.88;;;14.10;99.90;;;;;;5043003;28;20037;-66
2023/06/15 02:19:22;;;;;;;4.13;3.35;;;14.10;99.90;;;;;;5038170;28;20021;-67
2023/06/15 02:21:49;;;;;;;5.03;3.30;;;14.10;99.90;;;;;;5039913;28;20121;-66
2023/06/15 02:24:16;;;;;;;5.07;3.53;;;14.00;99.90;;;;;;5039985;28;20025;-66
2023/06/15 02:26:42;;;;;;;5.20;3.13;;;14.00;99.90;;;;;;5041155;28;20040;-65
2023/06/15 02:29:08;;;;;;;5.43;3.35;;;14.00;99.90;;;;;;5040327;28;20030;-64
2023/06/15 02:31:34;;;;;;;7.45;3.40;;;13.90;99.90;;;;;;5037832;28;20082;-65
2023/06/15 02:34:00;;;;;;;5.15;3.25;;;13.80;99.90;;;;;;5037991;28;20060;-67
2023/06/15 02:36:26;;;;;;;7.63;3.67;;;13.80;99.90;;;;;;5036884;28;20441;-66
2023/06/15 02:38:51;;;;;;;13.70;3.72;;;13.80;99.90;;;;;;5052881;28;20063;-65
2023/06/15 02:41:17;;;;;;;5.13;3.67;;;13.80;99.90;;;;;;5058186;28;20483;-66
2023/06/15 02:43:42;;;;;;;5.10;3.72;;;13.80;99.90;;;;;;5044201;28;20112;-66
2023/06/15 02:46:08;;;;;;;5.57;3.70;;;13.70;99.90;;;;;;5043609;28;20399;-65
2023/06/15 02:48:34;;;;;;;5.85;3.95;;;13.70;99.90;;;;;;5037798;28;20581;-65
2023/06/15 02:51:00;;;;;;;5.00;3.60;;;13.60;99.90;;;;;;5039653;28;20198;-66
2023/06/15 02:53:25;;;;;;;6.90;3.80;;;13.60;99.90;;;;;;5038339;28;20033;-66
2023/06/15 02:55:51;;;;;;;6.68;4.20;;;13.50;99.90;;;;;;5045784;28;20022;-66
2023/06/15 02:58:19;;;;;;;6.47;3.97;;;13.50;99.90;;;;;;5048779;28;20014;-67
2023/06/15 03:00:49;;;;;;;3.92;3.50;;;13.60;99.90;;;;;;5050763;28;20059;-66
2023/06/15 03:03:16;;;;;;;8.25;4.07;;;13.50;99.90;;;;;;5039415;28;20032;-66
2023/06/15 03:05:42;;;;;;;7.60;3.72;;;13.50;99.90;;;;;;5039230;28;20029;-66
2023/06/15 03:08:08;;;;;;;12.27;4.43;;;13.40;99.90;;;;;;5038359;28;20028;-66
2023/06/15 03:10:33;;;;;;;5.00;3.50;;;13.40;99.90;;;;;;5045512;28;20022;-66
2023/06/15 03:13:00;;;;;;;5.40;4.07;;;13.30;99.90;;;;;;5048489;28;20017;-66
2023/06/15 03:15:25;;;;;;;7.10;4.05;;;13.30;99.90;;;;;;5043646;28;20025;-66
2023/06/15 03:17:51;;;;;;;7.97;4.25;;;13.30;99.90;;;;;;5036529;28;20372;-66
2023/06/15 03:20:17;;;;;;;5.82;4.43;;;13.30;99.90;;;;;;5042189;28;20506;-67
2023/06/15 03:22:42;;;;;;;9.18;4.13;;;13.30;99.90;;;;;;5034932;28;20490;-66
2023/06/15 03:25:10;;;;;;;6.60;3.80;;;13.30;99.90;;;;;;5040090;28;20557;-65
2023/06/15 03:27:37;;;;;;;5.93;3.97;;;13.30;99.90;;;;;;5040627;28;20399;-66
2023/06/15 03:30:05;;;;;;;5.90;4.28;;;13.30;99.90;;;;;;5042279;28;20029;-66
2023/06/15 03:32:32;;;;;;;6.47;4.10;;;13.30;99.90;;;;;;5037134;28;20045;-66
2023/06/15 03:34:57;;;;;;;5.93;4.57;;;13.40;99.90;;;;;;5039428;28;20494;-66
2023/06/15 03:37:23;;;;;;;6.88;4.38;;;13.30;99.90;;;;;;5035925;28;20040;-66
2023/06/15 03:39:48;;;;;;;8.05;4.13;;;13.30;99.90;;;;;;5039233;28;20515;-65
2023/06/15 03:42:15;;;;;;;11.48;4.53;;;13.30;99.90;;;;;;5039177;28;20116;-66
2023/06/15 03:44:40;;;;;;;7.20;4.20;;;13.30;99.90;;;;;;5043088;28;20507;-66
2023/06/15 03:47:06;;;;;;;8.05;4.60;;;13.30;99.90;;;;;;5039024;28;20025;-66
2023/06/15 03:49:32;;;;;;;7.32;4.05;;;13.30;99.90;;;;;;5042664;28;20082;-65
2023/06/15 03:51:57;;;;;;;9.10;4.00;;;13.30;99.90;;;;;;5041337;28;20087;-64
2023/06/15 03:54:23;;;;;;;7.43;4.38;;;13.30;99.90;;;;;;5042378;28;20082;-63
2023/06/15 03:56:49;;;;;;;10.40;4.65;;;13.30;99.90;;;;;;5039852;28;20033;-66
2023/06/15 03:59:15;;;;;;;7.10;4.35;;;13.30;99.90;;;;;;5037652;28;20041;-65
2023/06/15 04:01:40;;;;;;;5.28;4.13;;;13.30;99.90;;;;;;5036628;28;20038;-64
2023/06/15 04:04:06;;;;;;;7.85;4.88;;;13.30;99.90;;;;;;5038572;28;20063;-66
2023/06/15 04:06:32;;;;;;;12.70;4.38;;;13.30;99.90;;;;;;5038540;28;20037;-67
2023/06/15 04:08:58;;;;;;;12.60;4.50;;;13.30;99.90;;;;;;5037933;28;20025;-67
2023/06/15 04:11:24;;;;;;;8.68;4.78;;;13.30;99.90;;;;;;5037152;28;20017;-66
2023/06/15 04:13:49;;;;;;;7.72;4.75;;;13.40;99.90;;;;;;5037057;28;20026;-66
2023/06/15 04:16:15;;;;;;;5.82;4.50;;;13.40;99.90;;;;;;5034979;28;20553;-64
2023/06/15 04:18:41;;;;;;;8.70;4.30;;;13.40;99.90;;;;;;5038973;28;20496;-67
2023/06/15 04:21:07;;;;;;;9.02;4.45;;;13.50;99.90;;;;;;5035289;28;20029;-66
2023/06/15 04:23:32;;;;;;;10.32;4.38;;;13.50;99.90;;;;;;5036095;28;20064;-67
2023/06/15 04:26:00;;;;;;;7.53;4.68;;;13.60;99.90;;;;;;5041460;28;20055;-66
2023/06/15 04:28:26;;;;;;;8.73;5.15;;;13.60;99.90;;;;;;5036169;28;20120;-66
2023/06/15 04:31:08;;;;;;;8.98;4.60;;;13.60;99.90;;;;;;5034289;28;20531;-65
2023/06/15 04:33:34;;;;;;;6.15;4.60;;;13.70;99.90;;;;;;5033910;28;20025;-65
2023/06/15 04:36:01;;;;;;;6.75;4.82;;;13.70;99.90;;;;;;5039256;28;20021;-66
2023/06/15 04:38:26;;;;;;;8.95;4.85;;;13.70;99.90;;;;;;5033291;28;20021;-65
2023/06/15 04:40:52;;;;;;;10.30;4.68;;;13.80;99.90;;;;;;5037532;28;20060;-66
2023/06/15 04:43:18;;;;;;;11.50;4.68;;;13.90;99.90;;;;;;5038075;28;20471;-65
2023/06/15 04:45:44;;;;;;;6.82;4.20;;;13.90;99.90;;;;;;5034966;28;20036;-65
2023/06/15 04:48:11;;;;;;;9.30;4.85;;;14.00;99.90;;;;;;5035161;28;20041;-66
2023/06/15 04:50:37;;;;;;;8.48;4.93;;;14.00;99.90;;;;;;5038355;28;20399;-66
2023/06/15 04:53:02;;;;;;;7.80;4.97;;;14.10;99.90;;;;;;5041599;28;20024;-65
2023/06/15 04:55:28;;;;;;;10.60;4.45;;;14.10;99.90;;;;;;5038019;28;20078;-64
2023/06/15 04:57:53;;;;;;;7.93;5.20;;;14.20;99.90;;;;;;5037561;28;20045;-65
2023/06/15 05:00:20;;;;;;;5.88;4.28;;;14.30;99.90;;;;;;5041192;28;20033;-63
2023/06/15 05:02:45;;;;;;;8.05;4.70;;;14.30;99.90;;;;;;5041573;28;20029;-64
2023/06/15 05:05:12;;;;;;;9.93;4.10;;;14.40;99.90;;;;;;5035690;28;20064;-64
2023/06/15 05:07:37;;;;;;;7.05;5.30;;;14.50;99.90;;;;;;5032715;28;20034;-65
2023/06/15 05:10:03;;;;;;;10.77;5.30;;;14.60;99.90;;;;;;5039640;28;20447;-67
2023/06/15 05:12:29;;;;;;;7.82;4.65;;;14.70;99.90;;;;;;5031535;28;20018;-66
2023/06/15 05:14:54;;;;;;;10.75;5.20;;;14.70;99.90;;;;;;5042911;28;20029;-66
2023/06/15 05:17:20;;;;;;;10.38;4.78;;;14.80;99.90;;;;;;5031717;28;20048;-65
2023/06/15 05:19:45;;;;;;;11.00;5.25;;;14.90;99.90;;;;;;5032925;28;20029;-65
2023/06/15 05:22:11;;;;;;;7.88;4.95;;;15.00;99.90;;;;;;5038717;28;20088;-65
2023/06/15 05:24:36;;;;;;;10.95;5.25;;;15.10;99.90;;;;;;5035777;28;21213;-66
2023/06/15 05:27:02;;;;;;;8.77;4.53;;;15.20;99.90;;;;;;5039127;28;20476;-65
2023/06/15 05:29:28;;;;;;;10.15;4.43;;;15.30;99.90;;;;;;5038549;28;20454;-66
2023/06/15 05:31:57;;;;;;;6.05;4.07;;;15.40;99.90;;;;;;5034002;28;20041;-66
2023/06/15 05:34:22;;;;;;;9.98;4.40;;;15.40;99.90;;;;;;5032557;28;20369;-63
2023/06/15 05:36:48;;;;;;;8.18;4.53;;;15.50;99.90;;;;;;5029382;28;20156;-66
2023/06/15 05:39:13;;;;;;;8.95;4.70;;;15.60;99.90;;;;;;5037090;28;20029;-65
2023/06/15 05:41:39;;;;;;;12.77;5.00;;;15.70;99.90;;;;;;5036910;28;20021;-66
2023/06/15 05:44:05;;;;;;;12.73;4.43;;;15.80;99.90;;;;;;5036997;28;20033;-65
2023/06/15 05:46:30;;;;;;;7.60;4.32;;;15.80;99.90;;;;;;5033826;28;20036;-66
2023/06/15 05:48:56;;;;;;;6.82;4.15;;;15.90;99.90;;;;;;5040498;28;20029;-65
2023/06/15 05:51:21;;;;;;;7.40;4.43;;;16.00;99.90;;;;;;5035267;28;20031;-66
2023/06/15 05:53:47;;;;;;;10.13;4.00;;;16.10;99.90;;;;;;5032692;28;20143;-65
2023/06/15 05:56:12;;;;;;;6.32;3.97;;;16.20;99.90;;;;;;5035182;28;20033;-66
2023/06/15 05:58:38;;;;;;;7.05;3.70;;;16.30;99.90;;;;;;5036936;28;20030;-65
2023/06/15 06:01:04;;;;;;;7.07;3.78;;;16.40;99.90;;;;;;5038670;28;20045;-65
2023/06/15 06:03:29;;;;;;;10.63;4.07;;;16.40;99.90;;;;;;5043769;28;20083;-66
2023/06/15 06:05:55;;;;;;;4.00;3.20;;;16.50;99.90;;;;;;5042854;28;20025;-66
2023/06/15 06:08:21;;;;;;;4.90;3.42;;;16.60;99.90;;;;;;5042287;28;20672;-65
2023/06/15 06:10:47;;;;;;;5.80;3.45;;;16.70;99.90;;;;;;5038547;28;20444;-65
2023/06/15 06:13:12;;;;;;;5.55;3.42;;;16.80;99.90;;;;;;5036189;28;20175;-66
2023/06/15 06:15:38;;;;;;;6.63;3.83;;;16.80;99.90;;;;;;5040519;28;20115;-66
2023/06/15 06:18:04;;;;;;;6.00;3.38;;;16.90;99.90;;;;;;5038839;28;20026;-65
2023/06/15 06:20:31;;;;;;;8.00;3.53;;;17.10;99.90;;;;;;5039239;28;20026;-65
2023/06/15 06:22:57;;;;;;;5.22;3.42;;;17.20;99.90;;;;;;5043807;28;20039;-65
2023/06/15 06:25:22;;;;;;;6.78;2.95;;;17.30;99.90;;;;;;5032269;28;20033;-63
2023/06/15 06:27:48;;;;;;;4.07;3.08;;;17.40;99.90;;;;;;5041896;28;20097;-65
2023/06/15 06:30:14;;;;;;;6.00;3.20;;;17.40;99.90;;;;;;5039098;28;20036;-65
2023/06/15 06:32:39;;;;;;;7.28;3.50;;;17.50;99.90;;;;;;5038870;28;20099;-66
2023/06/15 06:35:05;;;;;;;5.47;2.95;;;17.60;99.90;;;;;;5039241;28;20013;-65
2023/06/15 06:37:31;;;;;;;5.60;3.20;;;17.70;99.90;;;;;;5038999;28;20096;-66
2023/06/15 06:39:56;;;;;;;6.70;4.05;;;17.70;99.90;;;;;;5039357;28;20116;-65
2023/06/15 06:42:22;;;;;;;5.20;3.60;;;17.80;99.90;;;;;;5041661;28;20126;-64
2023/06/15 06:44:47;;;;;;;5.72;3.33;;;17.90;99.90;;;;;;5036443;28;20021;-65
2023/06/15 06:47:13;;;;;;;10.20;3.75;;;18.10;99.90;;;;;;5037316;28;20690;-64
2023/06/15 06:49:39;;;;;;;11.15;3.55;;;18.20;99.90;;;;;;5039659;28;20502;-64
2023/06/15 06:52:05;;;;;;;6.93;3.38;;;18.20;99.90;;;;;;5034590;28;20018;-65
2023/06/15 06:54:30;;;;;;;6.43;3.00;;;18.30;99.90;;;;;;5038379;28;20112;-64
2023/06/15 06:56:56;;;;;;;4.15;3.20;;;18.40;99.90;;;;;;5037139;28;20112;-65
2023/06/15 06:59:22;;;;;;;6.70;3.28;;;18.40;99.90;;;;;;5042166;28;20029;-66
2023/06/15 07:01:47;;;;;;;7.95;3.35;;;18.50;99.90;;;;;;5036728;28;20132;-66
2023/06/15 07:04:13;;;;;;;12.98;3.80;;;18.60;99.90;;;;;;5035820;28;20029;-65
2023/06/15 07:06:38;;;;;;;8.07;3.65;;;18.70;99.90;;;;;;5033349;28;20567;-66
2023/06/15 07:09:04;;;;;;;8.38;3.40;;;18.80;99.90;;;;;;5036968;28;20049;-65
2023/06/15 07:11:29;;;;;;;9.73;4.05;;;18.90;99.90;;;;;;5034067;28;20100;-65
2023/06/15 07:13:55;;;;;;;8.32;3.33;;;19.00;99.90;;;;;;5042402;28;20133;-65
2023/06/15 07:16:20;;;;;;;5.43;3.17;;;19.20;99.90;;;;;;5039975;28;20466;-66
2023/06/15 07:18:46;;;;;;;7.95;3.15;;;19.30;99.90;;;;;;5040887;28;20029;-65
2023/06/15 07:21:11;;;;;;;4.72;3.28;;;19.30;99.90;;;;;;5036222;28;20040;-65
2023/06/15 07:23:37;;;;;;;3.05;2.70;;;19.40;99.90;;;;;;5036750;28;20140;-65
2023/06/15 07:26:02;;;;;;;4.68;3.28;;;19.40;99.90;;;;;;5034596;28;20037;-66
2023/06/15 07:28:28;;;;;;;5.15;3.35;;;19.50;99.90;;;;;;5034692;28;20100;-65
2023/06/15 07:30:54;;;;;;;4.90;2.97;;;19.60;99.90;;;;;;5035675;28;20021;-64
2023/06/15 07:33:19;;;;;;;4.25;2.83;;;19.70;99.90;;;;;;5037196;28;20021;-66
2023/06/15 07:35:45;;;;;;;8.85;3.35;;;19.70;99.90;;;;;;5040201;28;20063;-65
2023/06/15 07:38:13;;;;;;;11.02;3.38;;;19.80;99.90;;;;;;5041768;28;20030;-65
2023/06/15 07:40:38;;;;;;;4.53;3.30;;;19.80;99.90;;;;;;5036412;28;20128;-65
2023/06/15 07:43:04;;;;;;;6.57;3.20;;;19.90;99.90;;;;;;5037299;28;20092;-65
2023/06/15 07:45:30;;;;;;;6.55;3.15;;;20.00;99.90;;;;;;5035187;28;20025;-65
2023/06/15 07:47:55;;;;;;;10.63;3.50;;;20.10;99.90;;;;;;5039649;28;20024;-65
2023/06/15 07:50:21;;;;;;;7.15;3.10;;;20.20;99.90;;;;;;5036597;28;20029;-64
2023/06/15 07:52:46;;;;;;;4.03;2.80;;;20.30;99.90;;;;;;5035587;28;20100;-65
2023/06/15 07:55:12;;;;;;;6.40;3.17;;;20.30;99.90;;;;;;5040106;28;20223;-66
2023/06/15 07:57:38;;;;;;;5.47;2.65;;;20.30;99.90;;;;;;5033402;28;20104;-66
2023/06/15 08:00:06;;;;;;;7.55;3.38;;;20.40;99.90;;;;;;5045282;28;20021;-66
2023/06/15 08:02:31;;;;;;;9.15;3.83;;;20.50;99.90;;;;;;5032786;28;20493;-64
2023/06/15 08:04:57;;;;;;;5.22;3.50;;;20.60;99.90;;;;;;5038086;28;20021;-65
2023/06/15 08:07:23;;;;;;;5.68;3.40;;;20.70;99.90;;;;;;5036874;28;20495;-64
2023/06/15 08:09:48;;;;;;;6.72;3.42;;;20.70;99.90;;;;;;5042639;28;20617;-66
2023/06/15 08:12:17;;;;;;;13.70;6.25;;;20.80;99.90;;;;;;5039946;28;21692;-65
2023/06/15 08:14:42;;;;;;;9.48;4.03;;;20.90;99.90;;;;;;5039035;28;20029;-64
2023/06/15 08:17:08;;;;;;;9.10;3.40;;;21.00;99.90;;;;;;5037775;28;20036;-66
2023/06/15 08:19:34;;;;;;;7.35;3.25;;;21.10;99.90;;;;;;5040380;28;20150;-65
2023/06/15 08:21:59;;;;;;;9.43;3.63;;;21.10;99.90;;;;;;5034263;28;20021;-65
2023/06/15 08:24:25;;;;;;;6.28;3.40;;;21.20;99.90;;;;;;5039082;28;20585;-64
2023/06/15 08:26:50;;;;;;;5.65;2.78;;;21.30;99.90;;;;;;5035260;28;20399;-65
2023/06/15 08:29:16;;;;;;;7.38;3.17;;;21.30;99.90;;;;;;5039721;28;20055;-65
2023/06/15 08:31:41;;;;;;;10.57;3.38;;;21.40;99.90;;;;;;5035826;28;20021;-65
2023/06/15 08:34:08;;;;;;;5.22;2.92;;;21.50;99.90;;;;;;5043745;28;20116;-66
2023/06/15 08:36:33;;;;;;;7.10;3.20;;;21.60;99.90;;;;;;5040137;28;20064;-66
2023/06/15 08:38:59;;;;;;;4.88;3.10;;;21.60;99.90;;;;;;5046128;28;20107;-66
2023/06/15 08:41:26;;;;;;;4.72;2.72;;;21.80;99.90;;;;;;5038509;28;20094;-65
2023/06/15 08:43:56;;;;;;;6.05;3.05;;;21.90;99.90;;;;;;5042377;28;20561;-65
2023/06/15 08:46:24;;;;;;;6.20;3.40;;;22.00;99.90;;;;;;5036577;28;20024;-66
2023/06/15 08:48:52;;;;;;;7.00;3.83;;;22.10;99.90;;;;;;5039193;28;20032;-64
2023/06/15 08:51:19;;;;;;;15.60;3.22;;;22.10;99.90;;;;;;5033312;28;20049;-64
2023/06/15 08:53:46;;;;;;;5.85;2.80;;;22.10;99.90;;;;;;5029275;28;20040;-66
2023/06/15 08:56:11;;;;;;;6.03;2.85;;;22.20;99.90;;;;;;5039325;28;20508;-64
2023/06/15 08:58:38;;;;;;;4.47;3.10;;;22.30;99.90;;;;;;5042001;28;20035;-65
2023/06/15 09:01:05;;;;;;;9.65;3.47;;;22.40;99.90;;;;;;5038086;28;20040;-65
2023/06/15 09:03:32;;;;;;;8.70;3.58;;;22.50;99.90;;;;;;5043958;28;20041;-65
2023/06/15 09:05:58;;;;;;;3.53;3.00;;;22.60;99.90;;;;;;5036875;28;20021;-66
2023/06/15 09:08:24;;;;;;;7.05;3.45;;;22.80;99.90;;;;;;5028155;28;20569;-66
2023/06/15 09:10:50;;;;;;;5.18;3.20;;;22.90;99.40;;;;;;5024238;28;20729;-66
2023/06/15 09:13:16;;;;;;;7.28;3.67;;;22.90;99.40;;;;;;5027016;28;20045;-66
2023/06/15 09:15:43;;;;;;;8.05;3.22;;;23.00;96.30;;;;;;5021866;28;20029;-65
2023/06/15 09:18:10;;;;;;;8.02;3.33;;;23.20;95.40;;;;;;5033953;28;20608;-66
2023/06/15 09:20:39;;;;;;;5.25;2.85;;;23.30;98.50;;;;;;5023539;28;20091;-65
2023/06/15 09:23:10;;;;;;;6.45;3.13;;;23.50;94.70;;;;;;5032961;28;20403;-65
2023/06/15 09:25:36;;;;;;;9.55;3.90;;;23.50;96.40;;;;;;5025902;28;20025;-65
2023/06/15 09:28:06;;;;;;;9.95;3.28;;;23.60;97.10;;;;;;5032949;28;20045;-65
2023/06/15 09:30:35;;;;;;;7.80;3.28;;;23.70;94.90;;;;;;5034836;28;20029;-65
2023/06/15 09:33:10;;;;;;;9.73;3.10;;;23.70;93.30;;;;;;5038503;28;20037;-65
2023/06/15 09:35:35;;;;;;;4.10;3.08;;;23.90;95.20;;;;;;5042665;28;20152;-65
2023/06/15 09:38:02;;;;;;;7.60;3.35;;;23.80;91.30;;;;;;5030114;28;20075;-65
2023/06/15 09:40:30;;;;;;;19.15;4.18;;;23.70;91.50;;;;;;5043522;28;20036;-65
2023/06/15 09:42:57;;;;;;;4.95;3.10;;;23.90;94.20;;;;;;5021326;28;20026;-65
2023/06/15 09:45:23;;;;;;;6.88;3.65;;;24.00;94.10;;;;;;5029154;28;20108;-66
2023/06/15 09:47:56;;;;;;;7.43;3.13;;;24.20;90.10;;;;;;5041866;28;20170;-64
2023/06/15 09:50:30;;;;;;;7.43;3.60;;;24.20;90.90;;;;;;5040128;28;20025;-65
2023/06/15 09:52:58;;;;;;;10.63;3.35;;;24.40;92.10;;;;;;5041269;28;20055;-65
2023/06/15 09:55:24;;;;;;;7.38;3.25;;;24.70;90.00;;;;;;5049995;28;20029;-65
2023/06/15 09:57:52;;;;;;;3.72;3.05;;;24.70;86.70;;;;;;5068611;28;20029;-65
2023/06/15 10:00:18;;;;;;;5.80;3.10;;;24.80;85.40;;;;;;5042219;28;20494;-65
2023/06/15 10:02:45;;;;;;;8.60;3.55;;;24.60;88.90;;;;;;5041625;28;20059;-65
2023/06/15 10:05:14;;;;;;;3.92;2.85;;;24.40;87.70;;;;;;5043224;28;20551;-65
2023/06/15 10:07:46;;;;;;;9.57;2.90;;;24.40;83.00;;;;;;5041191;28;20033;-65
2023/06/15 10:10:13;;;;;;;7.22;3.92;;;24.30;90.00;;;;;;5045245;28;20082;-64
2023/06/15 10:12:41;;;;;;;5.72;3.17;;;24.00;91.40;;;;;;5051513;28;20021;-65
2023/06/15 10:15:12;;;;;;;3.88;2.72;;;23.90;91.50;;;;;;5051893;28;20020;-63
2023/06/15 10:17:40;;;;;;;6.22;2.92;;;23.80;90.40;;;;;;5045558;28;20028;-65
2023/06/15 10:20:16;;;;;;;8.77;3.60;;;23.70;86.50;;;;;;5050295;28;20035;-65
2023/06/15 10:22:51;;;;;;;7.10;3.03;;;23.80;85.70;;;;;;5038278;28;20021;-66
2023/06/15 10:25:19;;;;;;;5.20;2.97;;;24.10;88.70;;;;;;5037705;28;20112;-65
2023/06/15 10:27:45;;;;;;;8.18;3.30;;;24.80;82.40;;;;;;5040842;28;20109;-66
2023/06/15 10:30:25;;;;;;;9.88;3.20;;;25.50;81.50;;;;;;5046842;28;20145;-66
2023/06/15 10:33:29;;;;;;;6.53;3.33;;;26.20;86.40;;;;;;5040632;28;20022;-65
2023/06/15 10:36:00;;;;;;;10.35;3.35;;;26.60;84.60;;;;;;5044428;28;20021;-66
2023/06/15 10:38:29;;;;;;;6.90;3.10;;;27.00;80.10;;;;;;5041147;28;20037;-66
2023/06/15 10:40:55;;;;;;;9.98;3.40;;;27.20;83.60;;;;;;5040637;28;20037;-65
2023/06/15 10:43:25;;;;;;;8.05;3.70;;;27.50;75.70;;;;;;5046134;28;20503;-65
2023/06/15 10:45:50;;;;;;;4.97;3.05;;;27.50;81.90;;;;;;5042665;28;20033;-65
2023/06/15 10:48:22;;;;;;;10.80;3.08;;;27.40;71.40;;;;;;5043373;28;20526;-65
2023/06/15 10:50:50;;;;;;;8.70;3.47;;;27.70;69.70;;;;;;5044325;28;20034;-66
2023/06/15 10:53:27;;;;;;;5.40;2.85;;;27.60;68.30;;;;;;5047601;28;20024;-65
2023/06/15 10:55:58;;;;;;;6.82;3.10;;;27.60;66.70;;;;;;5045410;28;20155;-65
2023/06/15 10:58:25;;;;;;;9.73;3.78;;;27.40;69.70;;;;;;5045324;28;20025;-64
2023/06/15 11:01:11;;;;;;;8.60;3.45;;;27.30;65.00;;;;;;5041967;28;20057;-64
2023/06/15 11:03:40;;;;;;;9.18;3.53;;;27.80;63.90;;;;;;5042327;28;20151;-65
2023/06/15 11:06:15;;;;;;;8.00;3.50;;;27.80;64.40;;;;;;5052998;28;20116;-65
2023/06/15 11:08:52;;;;;;;11.68;3.10;;;27.40;63.80;;;;;;5043751;28;20029;-64
2023/06/15 11:11:37;;;;;;;7.95;3.00;;;26.90;67.50;;;;;;5041570;28;20048;-65
2023/06/15 11:14:21;;;;;;;5.95;3.22;;;26.40;68.70;;;;;;5038643;28;20495;-65
2023/06/15 11:17:04;;;;;;;15.13;3.45;;;26.00;70.20;;;;;;5041526;28;20112;-67
2023/06/15 11:19:30;;;;;;;8.43;3.70;;;25.70;71.20;;;;;;5044537;28;20044;-66
2023/06/15 11:22:05;;;;;;;9.27;3.38;;;25.50;70.30;;;;;;5047563;28;20037;-65
2023/06/15 11:24:39;;;;;;;6.93;3.90;;;25.30;70.80;;;;;;5042465;28;20029;-67
2023/06/15 11:27:08;;;;;;;8.77;3.20;;;25.30;71.00;;;;;;5038686;28;20026;-65
2023/06/15 11:29:40;;;;;;;9.80;3.45;;;25.10;72.00;;;;;;5042006;28;20025;-65
2023/06/15 11:32:06;;;;;;;6.40;3.97;;;25.00;73.00;;;;;;5044955;28;20025;-64
2023/06/15 11:34:32;;;;;;;11.10;3.90;;;25.00;74.00;;;;;;5046761;28;20029;-65
2023/06/15 11:36:59;;;;;;;6.40;4.03;;;24.90;73.10;;;;;;5042746;28;20035;-66
2023/06/15 11:39:26;;;;;;;8.98;3.13;;;24.90;73.40;;;;;;5050198;28;20036;-66
2023/06/15 11:41:53;;;;;;;6.18;3.45;;;25.10;73.10;;;;;;5043149;28;20037;-64
2023/06/15 11:44:21;;;;;;;5.50;3.80;;;25.50;73.90;;;;;;5050404;28;20094;-66
2023/06/15 11:46:54;;;;;;;5.55;3.22;;;26.10;71.50;;;;;;5042603;28;20067;-65
2023/06/15 11:49:19;;;;;;;3.88;3.15;;;26.50;76.50;;;;;;5046850;28;20021;-62
2023/06/15 11:51:47;;;;;;;12.38;4.07;;;26.60;76.80;;;;;;5044520;28;20453;-66
2023/06/15 11:54:14;;;;;;;5.15;3.22;;;26.40;72.00;;;;;;5044547;28;20017;-66
2023/06/15 11:56:47;;;;;;;7.70;3.67;;;26.50;70.50;;;;;;5042985;28;20119;-64
2023/06/15 11:59:15;;;;;;;5.03;2.85;;;26.80;67.50;;;;;;5046501;28;20103;-65
2023/06/15 12:01:41;;;;;;;7.03;3.58;;;26.90;65.10;;;;;;5040960;28;20028;-65
2023/06/15 12:04:13;;;;;;;7.90;3.80;;;27.20;60.70;;;;;;5047132;28;20509;-64
2023/06/15 12:06:41;;;;;;;5.95;3.50;;;27.60;66.50;;;;;;5047290;28;20029;-64
2023/06/15 12:09:09;;;;;;;5.90;3.60;;;28.00;66.50;;;;;;5042734;28;20025;-65
2023/06/15 12:11:36;;;;;;;7.88;3.00;;;28.40;67.10;;;;;;5044858;28;20083;-66
2023/06/15 12:14:06;;;;;;;5.55;3.25;;;29.00;58.40;;;;;;5043581;28;20037;-64
2023/06/15 12:16:31;;;;;;;8.82;3.92;;;28.90;56.80;;;;;;5039997;28;20083;-64
2023/06/15 12:19:01;;;;;;;8.88;3.45;;;28.90;58.90;;;;;;5042666;28;20492;-65
2023/06/15 12:21:32;;;;;;;5.93;3.28;;;28.90;60.20;;;;;;5041386;28;20112;-65
2023/06/15 12:24:00;;;;;;;10.73;3.55;;;28.10;59.70;;;;;;5044783;28;20029;-63
2023/06/15 12:26:32;;;;;;;11.35;3.50;;;28.40;61.90;;;;;;5044456;28;20029;-64
2023/06/15 12:28:59;;;;;;;5.32;2.85;;;28.30;60.70;;;;;;5043737;28;20514;-65
2023/06/15 12:31:35;;;;;;;6.32;3.20;;;28.50;61.70;;;;;;5046052;28;20066;-65
2023/06/15 12:34:08;;;;;;;5.63;3.28;;;28.60;59.60;;;;;;5046848;28;20026;-66
2023/06/15 12:36:36;;;;;;;4.90;3.03;;;28.90;59.70;;;;;;5049868;28;20021;-64
2023/06/15 12:39:09;;;;;;;4.82;3.22;;;29.10;59.60;;;;;;5041577;28;20079;-64
2023/06/15 12:41:41;;;;;;;7.67;2.77;;;29.70;56.90;;;;;;5042429;28;20045;-65
2023/06/15 12:44:07;;;;;;;6.65;3.88;;;29.60;53.50;;;;;;5042863;28;20302;-65
2023/06/15 12:46:35;;;;;;;3.97;3.03;;;29.30;53.00;;;;;;5042868;28;20065;-65